Part2/2 [飛翔 ローアプローチ] JAXA FTB Cessna 680 Citation JA68CE Low Approach NOTO Airport 能登空港 2013.9.18 PM



JAXA飛行実験機「飛翔」によるローアプローチ(ローパス)
JAXA’s plane for experiments “Hisyo” take low approach(low pass) for Noise measurements.
[Part2/2]

機体騒音低減技術の飛行実証ミッション「FQUROH(フクロウ)」
JAXA Project “FQUROH”
Flight demonstration of QUiet technology to Reduce nOise from High-lift configurations

能登空港で行われたJAXAの飛行実験動画です。

騒音測定のための実証実験で、JAXAの実験機「飛翔」による飛行が行われました。
【この動画では、18日午後に行われた全ローアプローチ(ローパス)を収録しています】

※午前の実験動画はこちら (Part 1 of 2 Video)

Index
00:00 能登空港全景と飛行実験機「飛翔」 JAXA Flying Test Bed “Hisyo”
00:14 集音マイクが設置された「観測ステージ」 Sound collection place
00:30 「飛翔」離陸 Take-off – Start of the experiment
01:07 実験飛行・ローアプローチ(ローパス)開始 Take low approach (low pass)
高度・速度・着陸装置・フラップ・飛行姿勢などを変えて12回の測定飛行を実施
Flying by changing the altitude, speed, landing gear, flap, and descent condition.
Total 12 times low approach.
06:15 着陸 – 午後の実験飛行終了 Experiment end (P,M.) – Full stop landing

2013.9.18 能登空港 NOTO Airport, Ishikawa, JAPAN(RJNW/NTQ)
– Flight Data –
Date: Sep 18, 2013
Airline: JAXA (Japan Aerospace Exploration Agency) 宇宙航空研究開発機構
Aircraft: Cessna Model 680 Citation Sovereign | Flying Test Bed 飛行実験機 “飛翔”
Registration No.: JA68CE
Runway: 07
Take-off: 0427Z
Low Approach: 12 times
Landing: 0559Z
METAR: RJNW 180400Z 08008KT 050V120 9999 FEW025 SCT/// 25/14 Q1020
RJNW 180500Z 09006KT 030V140 9999 FEW025 SCT/// 25/15 Q1020

[whitewing681 YouTube Channel] 旅行・飛行機・鉄道・乗り物動画を公開中
http://www.youtube.com/user/whitewing681
[Subscribe チャンネル登録] http://www.youtube.com/subscription_center?add_user=whitewing681
[whitewing681 YouTube Channel Blog] http://whitewing681.blogspot.jp/

source

the #best space & weather videos – #amazing #space & #weather #videos #youtube #amazing

You May Also Like